Time;durP1;ratioP1;P1;durP2;ratioP2;P2;SDS_P1;SDS_P2;PMS_P1;PMS_P2;Temp;Humidity;BMP_temperature;BMP_pressure;BME280_temperature;BME280_humidity;BME280_pressure;Samples;Min_cycle;Max_cycle;Signal;HPM_P1;HPM_P2
2024/02/06 00:00:38;;;;;;;5.07;2.00;;;;;;;16.16;49.60;101428.84;4973710;28;20038;-63
2024/02/06 00:03:05;;;;;;;5.00;2.22;;;;;;;16.16;49.64;101428.84;4973952;28;20117;-63
2024/02/06 00:05:30;;;;;;;6.00;2.35;;;;;;;16.18;49.15;101432.28;4987920;28;20563;-63
2024/02/06 00:07:55;;;;;;;8.63;2.00;;;;;;;16.18;49.17;101426.88;4974704;28;20035;-63
2024/02/06 00:10:21;;;;;;;5.28;2.47;;;;;;;16.20;49.57;101434.81;4973345;28;20096;-63
2024/02/06 00:12:46;;;;;;;2.75;1.92;;;;;;;16.19;49.60;101427.72;4973386;28;20080;-63
2024/02/06 00:15:12;;;;;;;5.88;1.95;;;;;;;16.20;49.20;101445.63;4974442;28;20089;-63
2024/02/06 00:17:37;;;;;;;7.35;2.42;;;;;;;16.21;49.74;101423.00;4971866;28;20078;-63
2024/02/06 00:20:03;;;;;;;5.53;2.05;;;;;;;16.22;49.63;101422.00;4974516;28;20491;-63
2024/02/06 00:22:29;;;;;;;3.70;2.03;;;;;;;16.21;48.87;101425.72;4972944;28;20096;-63
2024/02/06 00:24:54;;;;;;;8.90;1.73;;;;;;;16.23;49.56;101423.72;4956119;28;20045;-63
2024/02/06 00:27:20;;;;;;;5.82;2.40;;;;;;;16.23;48.41;101413.75;4973597;28;20465;-63
2024/02/06 00:29:45;;;;;;;11.77;2.88;;;;;;;16.28;49.12;101421.41;4973091;28;20057;-63
2024/02/06 00:32:11;;;;;;;2.75;1.92;;;;;;;16.30;49.40;101408.59;4974159;28;20510;-63
2024/02/06 00:34:37;;;;;;;4.70;2.05;;;;;;;16.30;49.50;101403.19;4972914;28;20074;-63
2024/02/06 00:37:02;;;;;;;4.70;1.85;;;;;;;16.30;49.70;101395.09;4956919;28;20038;-63
2024/02/06 00:39:28;;;;;;;9.68;2.42;;;;;;;16.30;49.45;101403.19;4972967;28;20058;-63
2024/02/06 00:41:53;;;;;;;5.32;2.00;;;;;;;16.33;49.46;101414.53;4972707;28;20035;-63
2024/02/06 00:44:19;;;;;;;3.88;1.90;;;;;;;16.32;50.01;101406.59;4972837;28;20110;-63
2024/02/06 00:46:44;;;;;;;5.88;1.98;;;;;;;16.33;48.74;101408.31;4989211;28;20089;-63
2024/02/06 00:49:10;;;;;;;11.80;2.80;;;;;;;16.29;49.52;101390.66;4973959;28;20039;-63
2024/02/06 00:51:35;;;;;;;6.93;2.22;;;;;;;16.33;48.60;101386.66;4972864;28;20031;-63
2024/02/06 00:54:01;;;;;;;6.18;2.50;;;;;;;16.32;49.11;101379.56;4974194;28;20090;-63
2024/02/06 00:56:26;;;;;;;7.88;2.42;;;;;;;16.38;49.15;101378.94;4974026;28;20049;-63
2024/02/06 00:58:51;;;;;;;9.40;2.28;;;;;;;16.38;48.75;101389.75;4972811;28;20031;-63
2024/02/06 01:01:17;;;;;;;2.85;2.00;;;;;;;16.31;49.17;101364.31;4956609;28;20031;-63
2024/02/06 01:03:42;;;;;;;7.15;1.98;;;;;;;16.34;48.93;101393.75;4988807;28;20062;-63
2024/02/06 01:06:09;;;;;;;6.65;2.72;;;;;;;16.35;48.83;101372.97;4973612;28;20038;-63
2024/02/06 01:08:34;;;;;;;5.32;2.13;;;;;;;16.34;49.86;101374.84;4993464;28;20513;-63
2024/02/06 01:11:00;;;;;;;5.38;2.10;;;;;;;16.35;48.86;101372.97;4992032;28;20026;-63
2024/02/06 01:13:25;;;;;;;4.60;2.03;;;;;;;16.33;48.96;101361.47;4991977;28;20022;-63
2024/02/06 01:15:50;;;;;;;4.55;1.83;;;;;;;16.36;48.16;101370.09;4991988;28;20019;-63
2024/02/06 01:18:16;;;;;;;6.00;2.35;;;;;;;16.37;48.72;101371.81;4992111;28;20537;-62
2024/02/06 01:20:41;;;;;;;4.88;1.92;;;;;;;16.41;48.75;101369.66;4991993;28;20023;-63
2024/02/06 01:23:07;;;;;;;4.93;1.75;;;;;;;16.42;48.65;101372.22;4972792;28;20037;-63
2024/02/06 01:25:32;;;;;;;4.22;2.30;;;;;;;16.42;48.81;101358.69;4973027;28;20046;-62
2024/02/06 01:27:57;;;;;;;8.98;2.38;;;;;;;16.44;48.77;101355.84;4972910;28;20387;-64
2024/02/06 01:30:23;;;;;;;7.05;2.72;;;;;;;16.45;48.92;101346.72;4972977;28;20398;-63
2024/02/06 01:32:48;;;;;;;3.13;2.15;;;;;;;16.43;49.31;101341.47;4974893;28;20037;-63
2024/02/06 01:35:13;;;;;;;3.58;1.88;;;;;;;16.43;49.00;101340.63;4975190;28;20026;-63
2024/02/06 01:37:39;;;;;;;5.55;2.03;;;;;;;16.40;49.19;101344.47;4978142;28;20050;-64
2024/02/06 01:40:05;;;;;;;6.60;2.20;;;;;;;16.40;48.86;101341.78;4978731;28;20122;-63
2024/02/06 01:42:31;;;;;;;5.22;2.08;;;;;;;16.43;49.25;101337.91;4975988;28;20089;-63
2024/02/06 01:44:56;;;;;;;10.73;2.60;;;;;;;16.42;48.07;101334.34;4977093;28;20022;-62
2024/02/06 01:47:22;;;;;;;6.57;1.77;;;;;;;16.45;47.92;101344.84;4977194;28;20035;-63
2024/02/06 01:49:47;;;;;;;4.03;2.15;;;;;;;16.44;49.27;101329.66;4975596;28;20118;-63
2024/02/06 01:52:13;;;;;;;2.83;1.77;;;;;;;16.45;49.28;101336.75;4975511;28;20053;-62
2024/02/06 01:54:38;;;;;;;8.15;2.58;;;;;;;16.44;49.25;101324.25;4975400;28;20035;-63
2024/02/06 01:57:04;;;;;;;4.75;1.75;;;;;;;16.46;48.49;101333.06;4975921;28;20026;-63
2024/02/06 01:59:29;;;;;;;5.15;2.47;;;;;;;16.47;48.60;101325.78;4975601;28;20097;-63
2024/02/06 02:01:55;;;;;;;8.05;2.25;;;;;;;16.48;48.81;101336.44;4975532;28;20469;-62
2024/02/06 02:04:20;;;;;;;3.20;1.98;;;;;;;16.47;48.76;101328.50;4975236;28;20061;-62
2024/02/06 02:06:45;;;;;;;3.58;2.45;;;;;;;16.46;48.82;101322.22;4975374;28;20043;-63
2024/02/06 02:09:11;;;;;;;7.28;2.25;;;;;;;16.50;47.75;101315.50;4975484;28;20023;-63
2024/02/06 02:11:37;;;;;;;3.78;1.73;;;;;;;16.49;48.67;101316.50;4976864;28;20015;-62
2024/02/06 02:14:02;;;;;;;5.05;2.10;;;;;;;16.49;48.79;101308.41;4975779;28;20070;-63
2024/02/06 02:16:28;;;;;;;7.18;1.70;;;;;;;16.47;49.10;101307.69;4976499;28;20027;-63
2024/02/06 02:18:55;;;;;;;12.13;2.50;;;;;;;16.45;48.23;101307.00;4960838;28;20027;-63
2024/02/06 02:21:20;;;;;;;12.65;2.53;;;;;;;16.46;48.40;101295.19;4978905;28;20030;-63
2024/02/06 02:23:46;;;;;;;6.90;2.10;;;;;;;16.47;47.73;101301.44;4978561;28;20027;-63
2024/02/06 02:26:13;;;;;;;4.97;1.50;;;;;;;16.48;48.71;101293.16;4994591;28;20034;-63
2024/02/06 02:28:40;;;;;;;4.80;2.78;;;;;;;16.48;49.03;101293.16;4977531;28;20039;-62
2024/02/06 02:31:05;;;;;;;6.35;1.65;;;;;;;16.47;49.18;101286.06;4976373;28;20046;-63
2024/02/06 02:33:31;;;;;;;5.03;2.22;;;;;;;16.47;48.17;101280.66;4975040;28;20063;-63
2024/02/06 02:35:57;;;;;;;2.83;1.55;;;;;;;16.50;48.54;101284.91;4974902;28;20036;-63
2024/02/06 02:38:24;;;;;;;2.47;1.50;;;;;;;16.50;48.73;101296.56;4991035;28;20117;-63
2024/02/06 02:40:50;;;;;;;3.15;2.60;;;;;;;16.52;48.17;101294.56;4974846;28;20066;-63
2024/02/06 02:43:16;;;;;;;7.90;1.90;;;;;;;16.49;48.50;101285.91;4974555;28;20058;-63
2024/02/06 02:45:41;;;;;;;6.65;2.42;;;;;;;16.56;47.87;101287.00;4975120;28;20034;-63
2024/02/06 02:48:07;;;;;;;7.45;2.05;;;;;;;16.57;48.96;101286.00;4974105;28;20129;-63
2024/02/06 02:50:33;;;;;;;9.45;2.63;;;;;;;16.59;48.03;101284.00;4974660;28;20027;-63
2024/02/06 02:52:58;;;;;;;7.78;1.52;;;;;;;16.57;48.75;101276.03;4975099;28;20034;-62
2024/02/06 02:55:24;;;;;;;7.13;2.50;;;;;;;16.61;48.73;101276.59;4974565;28;20059;-62
2024/02/06 02:57:49;;;;;;;3.30;2.00;;;;;;;16.61;48.72;101271.19;4976009;28;20065;-63
2024/02/06 03:00:15;;;;;;;4.53;2.17;;;;;;;16.64;48.16;101287.91;4958412;28;20402;-63
2024/02/06 03:02:41;;;;;;;4.50;1.70;;;;;;;16.65;48.37;101270.69;4974425;28;20035;-63
2024/02/06 03:05:06;;;;;;;9.50;2.13;;;;;;;16.65;47.75;101273.41;4990267;28;20491;-63
2024/02/06 03:07:32;;;;;;;5.57;2.28;;;;;;;16.63;48.54;101258.34;4975747;28;20053;-63
2024/02/06 03:09:57;;;;;;;6.85;2.05;;;;;;;16.63;48.58;101263.75;4958316;28;20445;-63
2024/02/06 03:12:23;;;;;;;8.13;1.63;;;;;;;16.63;48.08;101256.50;4975712;28;20152;-63
2024/02/06 03:14:48;;;;;;;5.75;2.03;;;;;;;16.64;48.12;101247.34;4975572;28;20033;-63
2024/02/06 03:17:14;;;;;;;6.05;1.95;;;;;;;16.62;47.90;101252.06;4974149;28;20042;-63
2024/02/06 03:19:40;;;;;;;5.18;2.03;;;;;;;16.61;48.10;101250.38;4990199;28;20244;-63
2024/02/06 03:22:05;;;;;;;3.15;1.67;;;;;;;16.60;48.36;101240.56;4975547;28;20034;-62
2024/02/06 03:24:31;;;;;;;8.90;2.67;;;;;;;16.59;48.04;101252.38;4973936;28;20034;-63
2024/02/06 03:26:56;;;;;;;9.13;2.15;;;;;;;16.59;47.91;101254.25;4974461;28;20042;-62
2024/02/06 03:29:22;;;;;;;7.18;2.03;;;;;;;16.61;48.52;101239.53;4973807;28;20043;-63
2024/02/06 03:31:47;;;;;;;4.10;1.67;;;;;;;16.58;48.17;101229.03;4975254;28;20030;-62
2024/02/06 03:34:13;;;;;;;6.88;1.88;;;;;;;16.60;48.04;101242.41;4974701;28;20061;-68
2024/02/06 03:36:43;;;;;;;3.08;1.52;;;;;;;16.62;48.62;101246.66;4990864;28;20457;-68
2024/02/06 03:39:12;;;;;;;5.22;2.60;;;;;;;16.61;48.69;101233.31;4958978;28;20034;-69
2024/02/06 03:41:38;;;;;;;7.65;2.33;;;;;;;16.61;47.77;101234.13;4975349;28;20454;-69
2024/02/06 03:44:04;;;;;;;8.77;2.47;;;;;;;16.61;48.38;101234.13;4975188;28;20074;-68
2024/02/06 03:46:29;;;;;;;13.10;2.30;;;;;;;16.63;48.67;101228.59;4976880;28;20525;-69
2024/02/06 03:48:57;;;;;;;6.40;2.35;;;;;;;16.63;47.58;101223.19;4976483;28;20035;-68
2024/02/06 03:51:22;;;;;;;7.35;2.28;;;;;;;16.62;48.56;101237.69;4974940;28;20093;-68
2024/02/06 03:53:48;;;;;;;10.80;2.67;;;;;;;16.61;48.45;101233.31;4990547;28;20454;-68
2024/02/06 03:56:16;;;;;;;5.32;1.80;;;;;;;16.59;47.80;101222.63;4974637;28;20076;-68
2024/02/06 03:58:41;;;;;;;5.97;2.10;;;;;;;16.61;47.60;101217.91;4974811;28;20034;-68
2024/02/06 04:01:06;;;;;;;9.27;2.40;;;;;;;16.59;48.37;101214.53;4974904;28;20039;-68
2024/02/06 04:03:32;;;;;;;6.00;1.98;;;;;;;16.62;48.15;101200.69;4976095;28;20031;-68
2024/02/06 04:05:57;;;;;;;7.85;1.85;;;;;;;16.63;47.80;101210.50;4974759;28;20038;-68
2024/02/06 04:08:23;;;;;;;9.57;2.28;;;;;;;16.65;48.54;101203.06;4975639;28;20077;-68
2024/02/06 04:10:48;;;;;;;4.55;1.92;;;;;;;16.63;48.03;101199.69;4974900;28;20031;-68
2024/02/06 04:13:13;;;;;;;3.72;2.35;;;;;;;16.63;48.53;101210.50;4974593;28;20485;-68
2024/02/06 04:15:39;;;;;;;7.70;2.00;;;;;;;16.64;47.74;101204.06;4974463;28;20053;-68
2024/02/06 04:18:04;;;;;;;8.95;2.25;;;;;;;16.62;47.67;101207.94;4958176;28;20039;-68
2024/02/06 04:20:31;;;;;;;9.45;2.45;;;;;;;16.61;48.37;101198.16;4975459;28;20034;-68
2024/02/06 04:23:00;;;;;;;10.57;3.13;;;;;;;16.62;48.65;101214.19;4975704;28;20383;-69
2024/02/06 04:25:28;;;;;;;9.90;2.10;;;;;;;16.65;47.51;101203.06;4974296;28;20042;-68
2024/02/06 04:27:54;;;;;;;8.85;2.03;;;;;;;16.64;47.95;101206.78;4975564;28;20050;-68
2024/02/06 04:30:19;;;;;;;4.70;2.08;;;;;;;16.68;47.56;101202.75;4975947;28;20043;-68
2024/02/06 04:32:44;;;;;;;4.40;1.83;;;;;;;16.68;47.13;101212.72;4975953;28;20105;-68
2024/02/06 04:35:13;;;;;;;4.82;1.83;;;;;;;16.70;48.30;101203.44;4974393;28;20049;-68
2024/02/06 04:37:38;;;;;;;3.75;1.73;;;;;;;16.72;48.23;101209.53;4974335;28;20062;-68
2024/02/06 04:40:06;;;;;;;7.30;2.17;;;;;;;16.72;48.13;101203.28;4973314;28;20035;-69
2024/02/06 04:42:31;;;;;;;2.45;1.80;;;;;;;16.70;48.14;101205.28;4974859;28;20060;-63
2024/02/06 04:44:56;;;;;;;4.95;2.03;;;;;;;16.71;47.63;101202.44;4974200;28;20102;-63
2024/02/06 04:47:22;;;;;;;6.22;1.90;;;;;;;16.69;47.56;101192.78;4974255;28;20043;-63
2024/02/06 04:49:47;;;;;;;6.32;2.53;;;;;;;16.67;47.93;101200.19;4974201;28;20450;-63
2024/02/06 04:52:13;;;;;;;9.48;2.78;;;;;;;16.66;48.16;101193.97;4973095;28;20503;-63
2024/02/06 04:54:38;;;;;;;10.50;2.63;;;;;;;16.69;48.64;101198.19;4973095;28;20027;-63
2024/02/06 04:57:04;;;;;;;5.68;2.05;;;;;;;16.70;47.95;101203.44;4956835;28;20034;-63
2024/02/06 04:59:29;;;;;;;8.90;2.20;;;;;;;16.69;48.89;101196.34;4972995;28;20037;-63
2024/02/06 05:01:54;;;;;;;10.48;3.90;;;;;;;16.70;48.49;101184.50;4972841;28;20410;-63
2024/02/06 05:04:20;;;;;;;6.78;2.05;;;;;;;16.68;48.56;101188.38;4972733;28;20406;-63
2024/02/06 05:06:47;;;;;;;7.70;2.08;;;;;;;16.68;48.38;101185.66;4973383;28;20506;-63
2024/02/06 05:09:12;;;;;;;4.20;1.88;;;;;;;16.67;47.75;101181.25;4974134;28;20506;-63
2024/02/06 05:11:38;;;;;;;10.27;2.38;;;;;;;16.67;48.27;101178.56;4975634;28;20093;-62
2024/02/06 05:14:03;;;;;;;7.43;2.47;;;;;;;16.69;47.50;101160.31;4976584;28;20062;-63
2024/02/06 05:16:29;;;;;;;7.50;2.35;;;;;;;16.69;47.90;101165.75;4976246;28;20525;-63
2024/02/06 05:18:54;;;;;;;7.30;2.55;;;;;;;16.68;47.58;101164.03;4977632;28;20045;-63
2024/02/06 05:21:20;;;;;;;6.07;2.50;;;;;;;16.72;48.38;101160.00;4977475;28;20038;-63
2024/02/06 05:23:45;;;;;;;5.40;2.10;;;;;;;16.69;48.08;101153.06;4977649;28;20031;-63
2024/02/06 05:26:12;;;;;;;6.43;2.00;;;;;;;16.72;48.56;101154.59;4977776;28;20045;-63
2024/02/06 05:28:37;;;;;;;4.32;2.58;;;;;;;16.71;48.84;101159.16;4976198;28;20035;-63
2024/02/06 05:31:03;;;;;;;3.53;1.98;;;;;;;16.68;48.04;101151.34;4975959;28;20023;-63
2024/02/06 05:33:28;;;;;;;7.10;2.15;;;;;;;16.71;47.54;101134.81;4977846;28;20122;-63
2024/02/06 05:35:54;;;;;;;7.10;2.67;;;;;;;16.73;48.68;101146.31;4975992;28;20031;-63
2024/02/06 05:38:19;;;;;;;5.13;1.75;;;;;;;16.76;47.76;101146.00;4977557;28;20061;-63
2024/02/06 05:40:45;;;;;;;11.93;2.25;;;;;;;16.76;47.86;101135.16;4960117;28;20042;-63
2024/02/06 05:43:10;;;;;;;5.28;1.92;;;;;;;16.78;48.39;101143.97;4976993;28;20117;-63
2024/02/06 05:45:35;;;;;;;6.00;2.13;;;;;;;16.72;48.44;101122.97;4977457;28;20027;-63
2024/02/06 05:48:01;;;;;;;4.97;2.17;;;;;;;16.76;48.15;101151.41;4978751;28;20073;-63
2024/02/06 05:50:27;;;;;;;7.65;3.45;;;;;;;16.70;48.07;101130.41;4978936;28;20058;-63
2024/02/06 05:52:53;;;;;;;8.98;2.28;;;;;;;16.73;48.33;101167.94;4978932;28;20410;-63
2024/02/06 05:55:18;;;;;;;8.73;2.65;;;;;;;16.72;48.77;101141.06;4962470;28;20055;-63
2024/02/06 05:57:43;;;;;;;4.88;1.77;;;;;;;16.70;47.86;101135.81;4980219;28;20565;-63
2024/02/06 06:00:09;;;;;;;10.15;2.55;;;;;;;16.72;48.11;101131.06;4961212;28;20114;-63
2024/02/06 06:02:34;;;;;;;8.65;2.80;;;;;;;16.67;48.96;101124.44;4976944;28;20042;-68
2024/02/06 06:05:00;;;;;;;3.58;2.35;;;;;;;16.75;49.05;101128.03;4978464;28;20459;-69
2024/02/06 06:07:27;;;;;;;9.40;2.55;;;;;;;16.77;48.72;101115.22;4978562;28;20035;-69
2024/02/06 06:09:52;;;;;;;6.60;2.05;;;;;;;16.77;48.33;101126.06;4978304;28;20498;-69
2024/02/06 06:12:18;;;;;;;11.30;3.03;;;;;;;16.76;48.24;101100.00;4978254;28;20035;-68
2024/02/06 06:14:43;;;;;;;9.27;2.40;;;;;;;16.76;48.76;101112.66;4977567;28;20050;-68
2024/02/06 06:17:08;;;;;;;10.85;2.65;;;;;;;16.78;48.00;101111.50;4992449;28;20043;-68
2024/02/06 06:19:34;;;;;;;6.25;2.35;;;;;;;16.77;48.28;101109.81;4977473;28;20497;-68
2024/02/06 06:22:06;;;;;;;5.78;2.25;;;;;;;16.75;48.06;101106.41;4975437;28;20035;-68
2024/02/06 06:24:31;;;;;;;4.53;2.58;;;;;;;16.79;48.26;101107.78;4977993;28;20061;-69
2024/02/06 06:26:57;;;;;;;10.27;2.53;;;;;;;16.76;48.85;101105.41;4977271;28;20034;-69
2024/02/06 06:29:22;;;;;;;6.90;2.63;;;;;;;16.81;48.22;101094.09;4976138;28;20031;-68
2024/02/06 06:31:47;;;;;;;10.43;3.13;;;;;;;16.80;48.81;101093.25;4976828;28;20035;-68
2024/02/06 06:34:13;;;;;;;11.40;3.00;;;;;;;16.82;48.13;101102.06;4977128;28;20035;-68
2024/02/06 06:36:39;;;;;;;8.85;2.40;;;;;;;16.84;48.14;101102.72;4976342;28;20118;-69
2024/02/06 06:39:08;;;;;;;6.03;2.28;;;;;;;16.85;48.13;101101.72;4991688;28;20097;-68
2024/02/06 06:41:34;;;;;;;15.32;3.90;;;;;;;16.86;48.88;101103.41;4975694;28;20042;-69
2024/02/06 06:44:00;;;;;;;6.07;2.95;;;;;;;16.88;48.38;101114.09;4975887;28;20031;-69
2024/02/06 06:46:25;;;;;;;13.40;3.75;;;;;;;16.87;48.72;101120.50;4977271;28;20045;-68
2024/02/06 06:48:50;;;;;;;12.80;2.85;;;;;;;16.88;48.53;101103.25;4991906;28;20034;-68
2024/02/06 06:51:16;;;;;;;9.98;3.10;;;;;;;16.89;48.00;101107.63;4975688;28;20035;-69
2024/02/06 06:53:41;;;;;;;11.02;2.50;;;;;;;16.89;48.41;101119.31;4975466;28;20490;-68
2024/02/06 06:56:38;;;;;;;15.65;3.95;;;;;;;16.92;48.28;101107.31;4976700;28;20518;-69
2024/02/06 06:59:03;;;;;;;9.07;2.63;;;;;;;16.94;48.01;101110.72;4976509;28;20050;-68
2024/02/06 07:01:29;;;;;;;7.07;2.97;;;;;;;16.95;48.34;101119.66;4975727;28;20032;-68
2024/02/06 07:03:54;;;;;;;10.48;2.42;;;;;;;16.95;49.35;101116.97;4972159;28;20137;-68
2024/02/06 07:06:19;;;;;;;7.07;2.00;;;;;;;16.95;48.53;101109.69;4957122;28;20106;-68
2024/02/06 07:08:45;;;;;;;5.00;2.10;;;;;;;16.92;48.26;101101.91;4956248;28;20467;-68
2024/02/06 07:11:10;;;;;;;7.40;2.58;;;;;;;16.96;48.61;101107.84;4972364;28;20090;-68
2024/02/06 07:13:36;;;;;;;10.02;2.45;;;;;;;16.96;48.34;101091.59;4955556;28;20047;-64
2024/02/06 07:16:01;;;;;;;7.50;2.65;;;;;;;16.94;48.06;101088.22;4955076;28;20019;-63
2024/02/06 07:18:27;;;;;;;9.85;2.72;;;;;;;16.96;48.43;101092.47;4970490;28;20019;-66
2024/02/06 07:20:52;;;;;;;9.18;2.90;;;;;;;16.92;49.03;101082.13;4954080;28;20399;-64
2024/02/06 07:23:18;;;;;;;11.63;2.40;;;;;;;16.95;48.93;101085.34;4956320;28;20103;-64
2024/02/06 07:25:43;;;;;;;5.55;2.65;;;;;;;16.96;48.26;101081.63;4971337;28;20055;-64
2024/02/06 07:28:09;;;;;;;15.95;2.63;;;;;;;16.97;48.30;101075.22;4955120;28;20041;-63
2024/02/06 07:30:34;;;;;;;4.75;2.65;;;;;;;16.99;49.11;101081.31;4970872;28;20023;-64
2024/02/06 07:32:59;;;;;;;11.05;2.83;;;;;;;17.00;48.37;101082.97;4955694;28;20118;-64
2024/02/06 07:35:25;;;;;;;6.88;2.15;;;;;;;16.99;48.81;101075.03;4954969;28;20054;-64
2024/02/06 07:37:50;;;;;;;8.77;2.75;;;;;;;17.00;48.22;101079.47;4970856;28;20035;-64
2024/02/06 07:40:16;;;;;;;6.30;2.85;;;;;;;16.97;48.19;101060.84;4956179;28;20019;-64
2024/02/06 07:42:42;;;;;;;9.13;2.35;;;;;;;17.01;48.54;101075.72;4955965;28;20027;-64
2024/02/06 07:45:08;;;;;;;4.93;2.13;;;;;;;17.03;48.70;101058.28;4956085;28;20027;-64
2024/02/06 07:47:33;;;;;;;5.35;2.03;;;;;;;17.09;48.65;101075.75;4970594;28;20034;-64
2024/02/06 07:49:59;;;;;;;5.10;2.28;;;;;;;17.11;49.10;101073.75;4960932;28;20015;-63
2024/02/06 07:52:24;;;;;;;6.00;2.25;;;;;;;17.13;48.46;101067.16;4960908;28;20030;-64
2024/02/06 07:54:51;;;;;;;7.40;3.03;;;;;;;17.19;48.68;101062.91;4954692;28;20035;-64
2024/02/06 07:57:16;;;;;;;7.10;2.80;;;;;;;17.17;48.42;101073.09;4955925;28;20024;-64
2024/02/06 07:59:42;;;;;;;8.48;2.80;;;;;;;17.16;47.88;101079.50;4970879;28;20033;-63
2024/02/06 08:02:07;;;;;;;11.27;2.97;;;;;;;17.17;48.29;101086.63;4970283;28;20399;-64
2024/02/06 08:04:32;;;;;;;9.45;2.90;;;;;;;17.16;48.46;101066.81;4974171;28;20050;-65
2024/02/06 08:06:58;;;;;;;5.78;2.80;;;;;;;17.17;48.40;101065.78;4973877;28;20046;-64
2024/02/06 08:09:23;;;;;;;8.10;2.58;;;;;;;17.14;48.53;101063.41;4975017;28;20191;-64
2024/02/06 08:11:50;;;;;;;14.00;2.72;;;;;;;17.18;48.76;101070.19;4974159;28;20035;-64
2024/02/06 08:14:16;;;;;;;10.73;2.63;;;;;;;17.21;48.68;101061.75;4973597;28;20489;-64
2024/02/06 08:16:42;;;;;;;10.68;2.40;;;;;;;17.22;48.58;101065.31;4957836;28;20084;-63
2024/02/06 08:19:08;;;;;;;7.32;2.17;;;;;;;17.23;48.45;101070.53;4975473;28;20030;-64
2024/02/06 08:21:33;;;;;;;5.20;2.53;;;;;;;17.24;48.41;101068.69;4974984;28;20126;-63
2024/02/06 08:23:59;;;;;;;13.05;3.10;;;;;;;17.24;48.47;101063.25;4973540;28;20038;-64
2024/02/06 08:26:24;;;;;;;8.05;2.33;;;;;;;17.22;48.71;101070.72;4973281;28;20436;-63
2024/02/06 08:28:49;;;;;;;8.43;2.80;;;;;;;17.24;48.87;101063.25;4973568;28;20054;-62
2024/02/06 08:31:15;;;;;;;5.90;2.40;;;;;;;17.21;48.02;101058.19;4974843;28;20035;-63
2024/02/06 08:33:44;;;;;;;9.48;2.95;;;;;;;17.27;48.67;101060.22;4973742;28;20035;-63
2024/02/06 08:36:12;;;;;;;7.28;2.67;;;;;;;17.27;48.85;101071.06;4973808;28;20030;-63
2024/02/06 08:38:38;;;;;;;5.53;2.53;;;;;;;17.28;48.97;101064.63;4973767;28;20522;-63
2024/02/06 08:41:04;;;;;;;9.90;3.15;;;;;;;17.28;48.31;101064.63;4971909;28;20043;-63
2024/02/06 08:43:31;;;;;;;10.38;2.45;;;;;;;17.29;49.50;101058.19;4974772;28;20033;-64
2024/02/06 08:45:59;;;;;;;4.97;2.60;;;;;;;17.27;48.74;101052.09;4976984;28;20035;-63
2024/02/06 08:48:28;;;;;;;7.82;1.80;;;;;;;17.24;49.17;101052.44;4978662;28;20391;-64
2024/02/06 08:50:54;;;;;;;8.13;2.83;;;;;;;17.25;48.80;101044.13;4977711;28;20035;-64
2024/02/06 08:53:19;;;;;;;9.30;2.70;;;;;;;17.25;48.03;101051.44;4963888;28;20031;-64
2024/02/06 08:55:45;;;;;;;5.22;2.35;;;;;;;17.23;49.15;101053.44;4984434;28;20431;-64
2024/02/06 08:58:11;;;;;;;7.28;2.65;;;;;;;17.25;48.08;101049.53;4997815;28;20077;-64
2024/02/06 09:00:37;;;;;;;10.35;2.55;;;;;;;17.25;49.14;101056.84;4996445;28;20058;-63
2024/02/06 09:03:02;;;;;;;12.80;1.98;;;;;;;17.28;49.15;101053.81;5012537;28;20041;-64
2024/02/06 09:05:28;;;;;;;9.63;2.10;;;;;;;17.28;48.32;101048.41;4996748;28;20042;-64
2024/02/06 09:07:54;;;;;;;4.93;2.28;;;;;;;17.30;49.19;101063.47;4998800;28;20026;-64
2024/02/06 09:10:19;;;;;;;6.95;2.05;;;;;;;17.33;48.15;101063.13;4997468;28;20109;-64
2024/02/06 09:12:45;;;;;;;11.32;2.38;;;;;;;17.37;48.01;101063.63;4981179;28;20401;-64
2024/02/06 09:15:11;;;;;;;10.27;2.45;;;;;;;17.37;48.58;101047.38;4999026;28;20038;-64
2024/02/06 09:17:36;;;;;;;9.43;2.90;;;;;;;17.37;48.56;101050.06;4999374;28;20034;-64
2024/02/06 09:20:02;;;;;;;9.88;2.33;;;;;;;17.40;48.73;101049.75;4999395;28;20490;-64
2024/02/06 09:22:27;;;;;;;7.53;1.98;;;;;;;17.42;48.67;101055.84;4997456;28;20038;-64
2024/02/06 09:24:53;;;;;;;9.48;2.33;;;;;;;17.40;48.90;101052.44;4979805;28;20054;-63
2024/02/06 09:27:18;;;;;;;7.32;3.08;;;;;;;17.33;48.26;101046.88;4996844;28;20037;-64
2024/02/06 09:29:43;;;;;;;13.07;2.90;;;;;;;17.41;48.70;101059.56;4996134;28;20038;-64
2024/02/06 09:32:09;;;;;;;8.13;2.60;;;;;;;17.40;49.05;101047.03;4995906;28;20030;-68
2024/02/06 09:34:34;;;;;;;10.20;2.70;;;;;;;17.40;48.93;101057.88;5013019;28;20073;-68
2024/02/06 09:37:00;;;;;;;7.38;2.15;;;;;;;17.41;48.29;101049.59;4997770;28;20039;-67
2024/02/06 09:39:25;;;;;;;5.63;2.55;;;;;;;17.47;48.74;101064.31;5012717;28;20034;-68
2024/02/06 09:41:52;;;;;;;10.85;2.60;;;;;;;17.50;48.38;101057.72;4996708;28;20030;-68
2024/02/06 09:44:17;;;;;;;5.00;1.85;;;;;;;17.48;48.22;101049.75;4996790;28;20468;-68
2024/02/06 09:46:51;;;;;;;10.45;2.60;;;;;;;17.52;48.65;101051.13;4996660;28;20113;-69
2024/02/06 09:49:17;;;;;;;7.60;2.83;;;;;;;17.54;48.68;101043.69;4996650;28;20464;-69
2024/02/06 09:51:43;;;;;;;13.52;3.88;;;;;;;17.54;48.17;101054.53;4995891;28;20057;-68
2024/02/06 09:54:09;;;;;;;8.10;2.40;;;;;;;17.53;48.54;101047.41;4996911;28;20054;-68
2024/02/06 09:56:35;;;;;;;9.77;2.60;;;;;;;17.52;48.43;101050.25;4996211;28;20114;-69
2024/02/06 09:59:05;;;;;;;12.50;2.97;;;;;;;17.59;48.30;101054.03;4996331;28;20533;-68
2024/02/06 10:01:34;;;;;;;10.98;2.42;;;;;;;17.60;49.17;101048.44;4996438;28;20170;-68
2024/02/06 10:04:00;;;;;;;9.13;2.50;;;;;;;17.62;48.86;101038.28;4995981;28;20046;-68
2024/02/06 10:06:26;;;;;;;9.18;2.15;;;;;;;17.65;48.44;101018.97;4996751;28;20030;-68
2024/02/06 10:08:52;;;;;;;7.38;2.63;;;;;;;17.67;48.13;101027.75;4997581;28;20034;-68
2024/02/06 10:11:18;;;;;;;8.85;2.47;;;;;;;17.68;48.52;101048.44;4999192;28;20038;-68
2024/02/06 10:13:46;;;;;;;16.70;2.88;;;;;;;17.66;48.44;101039.63;4998946;28;20031;-69
2024/02/06 10:16:12;;;;;;;9.80;2.38;;;;;;;17.69;48.13;101042.00;4998871;28;20494;-68
2024/02/06 10:18:54;;;;;;;6.75;2.63;;;;;;;17.71;48.20;101045.38;4999075;28;20038;-68
2024/02/06 10:21:20;;;;;;;11.52;2.55;;;;;;;17.72;48.72;101041.69;4996238;28;20030;-68
2024/02/06 10:23:46;;;;;;;9.43;2.90;;;;;;;17.75;48.74;101019.66;4995543;28;20057;-68
2024/02/06 10:26:19;;;;;;;9.00;2.80;;;;;;;17.81;48.30;101010.81;4994768;28;20053;-68
2024/02/06 10:28:44;;;;;;;;;;;;;;;17.91;48.24;101003.38;4998796;28;20093;-68
2024/02/06 10:31:11;;;;;;;8.18;2.70;;;;;;;17.93;48.29;101001.31;5013738;28;19921;-68
2024/02/06 10:33:38;;;;;;;5.05;2.70;;;;;;;17.98;48.42;101014.34;4997158;28;20089;-68
2024/02/06 10:36:04;;;;;;;8.18;2.40;;;;;;;18.00;47.93;101017.75;4994578;28;20041;-68
2024/02/06 10:38:30;;;;;;;6.13;2.53;;;;;;;17.98;47.91;101017.06;4994930;28;20113;-68
2024/02/06 10:40:56;;;;;;;7.68;2.55;;;;;;;17.96;48.36;101006.41;4995767;28;20081;-68
2024/02/06 10:43:29;;;;;;;6.47;2.40;;;;;;;17.94;48.27;101005.75;4994890;28;20405;-64
2024/02/06 10:46:01;;;;;;;10.00;2.72;;;;;;;17.93;48.27;101011.31;4978345;28;20030;-64
2024/02/06 10:48:27;;;;;;;11.52;3.05;;;;;;;17.90;48.37;101004.38;4996229;28;20114;-64
2024/02/06 10:51:00;;;;;;;6.72;2.70;;;;;;;17.88;48.35;101013.69;4994528;28;20030;-64
2024/02/06 10:53:26;;;;;;;6.80;3.22;;;;;;;17.84;48.40;101018.59;4974747;28;20043;-64
2024/02/06 10:55:57;;;;;;;4.80;2.45;;;;;;;17.80;48.52;101003.72;4973342;28;20060;-64
2024/02/06 10:58:26;;;;;;;14.38;3.10;;;;;;;17.79;48.65;101015.56;4959025;28;20402;-64
2024/02/06 11:00:52;;;;;;;6.45;3.00;;;;;;;17.79;48.21;101004.72;4975195;28;20474;-63
2024/02/06 11:03:19;;;;;;;9.57;2.30;;;;;;;17.76;48.26;100988.81;4976534;28;20034;-64
2024/02/06 11:05:52;;;;;;;8.43;3.25;;;;;;;17.78;48.67;100989.47;4975096;28;20038;-64
2024/02/06 11:08:21;;;;;;;9.52;3.50;;;;;;;17.83;48.49;100987.13;4958547;28;20034;-64
2024/02/06 11:10:50;;;;;;;7.43;2.63;;;;;;;17.83;48.21;100984.41;4974418;28;20031;-63
2024/02/06 11:13:32;;;;;;;11.45;3.30;;;;;;;17.86;48.36;100986.78;4974755;28;20031;-67
2024/02/06 11:16:02;;;;;;;8.55;3.53;;;;;;;17.86;48.12;100978.66;4975034;28;20502;-62
2024/02/06 11:18:30;;;;;;;6.57;3.20;;;;;;;17.88;48.55;100982.03;4976521;28;20050;-64